Station Historical Data
Daily Summary for January 6, 2018 Units:  Metric    English   Both
« Previous Day
Next Day »
Daily Weekly Monthly Yearly Custom
  High: Low: Average:
Temperature: -17.8 °C -19.9 °C -17.3 °C
Dew Point: -17.8 °C -23.1 °C -21.2 °C
Humidity: Humidity% 61% 71%
Wind Speed: 0km/h 1.6km/h 7.6km/h
Wind Gust: 0km/h - -
Wind- - West
Pressure: 0 hPa 1023.2 hPa -
Precipitation: 0 mm    
Historical Graphs
 
 
Tabular Data for January 6, 2018
Time Temperature Dew Point Pressure Wind Wind Speed Wind Gust Humidity Rainfall Rate (Hourly)
-17.8 °C -17.8 °C 0 hPa Calm     Humidity% 0 mm
00:04 -16.6 °C -20.4 °C 1023.2 hPa West 16.1 km/h 25.7 km/h 72% 0 mm
00:09 -16.6 °C -20.4 °C 1023.6 hPa West 12.9 km/h 27.4 km/h 72% 0 mm
00:14 -16.6 °C -20.4 °C 1023.6 hPa West 12.9 km/h 27.4 km/h 72% 0 mm
00:19 -16.6 °C -20.4 °C 1023.6 hPa West 11.3 km/h 20.9 km/h 72% 0 mm
00:24 -16.5 °C -20.4 °C 1023.6 hPa WSW 4.8 km/h 29 km/h 72% 0 mm
00:25 -16.5 °C -20.4 °C 1023.6 hPa West 11.3 km/h 29 km/h 72% 0 mm
00:34 -16.5 °C -20.4 °C 1023.6 hPa West 12.9 km/h 17.7 km/h 72% 0 mm
00:39 -16.5 °C -20.6 °C 1023.9 hPa West 8 km/h 22.5 km/h 71% 0 mm
00:44 -16.5 °C -20.6 °C 1023.9 hPa West 11.3 km/h 22.5 km/h 71% 0 mm
00:54 -16.6 °C -20.6 °C 1023.9 hPa West 9.7 km/h 19.3 km/h 71% 0 mm
00:59 -16.6 °C -20.6 °C 1023.9 hPa West 9.7 km/h 17.7 km/h 71% 0 mm
01:04 -16.6 °C -20.7 °C 1023.9 hPa West 8 km/h 14.5 km/h 71% 0 mm
01:09 -16.6 °C -20.7 °C 1024.3 hPa West 8 km/h 19.3 km/h 71% 0 mm
01:14 -16.7 °C -20.7 °C 1024.3 hPa West 8 km/h 24.1 km/h 71% 0 mm
01:19 -16.7 °C -20.7 °C 1024.3 hPa West 9.7 km/h 24.1 km/h 71% 0 mm
01:24 -16.8 °C -20.7 °C 1024.3 hPa West 11.3 km/h 22.5 km/h 72% 0 mm
01:29 -16.8 °C -20.7 °C 1024.3 hPa West 11.3 km/h 22.5 km/h 72% 0 mm
01:39 -17 °C -20.8 °C 1024.6 hPa West 9.7 km/h 20.9 km/h 72% 0 mm
01:44 -17.1 °C -20.7 °C 1024.6 hPa West 9.7 km/h 17.7 km/h 73% 0 mm
01:49 -17.1 °C -20.8 °C 1024.9 hPa WNW 8 km/h 14.5 km/h 73% 0 mm
01:54 -17.2 °C -20.8 °C 1024.9 hPa West 8 km/h 19.3 km/h 73% 0 mm
01:59 -17.2 °C -20.9 °C 1024.9 hPa WSW 8 km/h 14.5 km/h 73% 0 mm
02:04 -17.2 °C -20.9 °C 1025.3 hPa West 14.5 km/h 19.3 km/h 73% 0 mm
02:09 -17.3 °C -20.9 °C 1025.3 hPa WSW 8 km/h 19.3 km/h 73% 0 mm
02:14 -17.3 °C -21 °C 1025.3 hPa West 9.7 km/h 19.3 km/h 73% 0 mm
02:19 -17.3 °C -20.8 °C 1025.6 hPa WNW 12.9 km/h 16.1 km/h 74% 0 mm
02:24 -17.4 °C -20.9 °C 1025.6 hPa West 9.7 km/h 17.7 km/h 74% 0 mm
02:29 -17.5 °C -21 °C 1026 hPa West 11.3 km/h 17.7 km/h 74% 0 mm
02:34 -17.5 °C -21 °C 1026 hPa West 9.7 km/h 22.5 km/h 74% 0 mm
02:35 -17.5 °C -21 °C 1026 hPa West 9.7 km/h 22.5 km/h 74% 0 mm
02:44 -17.7 °C -21.1 °C 1026.3 hPa West 9.7 km/h 20.9 km/h 75% 0 mm
02:49 -17.8 °C -21.2 °C 1026.3 hPa West 6.4 km/h 19.3 km/h 75% 0 mm
02:54 -17.9 °C -21.2 °C 1026.3 hPa WNW 11.3 km/h 19.3 km/h 75% 0 mm
02:59 -17.9 °C -21.1 °C 1026.3 hPa West 6.4 km/h 12.9 km/h 76% 0 mm
03:04 -17.9 °C -21.2 °C 1026.3 hPa West 8 km/h 12.9 km/h 75% 0 mm
03:14 -17.9 °C -21.2 °C 1026.3 hPa NW 12.9 km/h 19.3 km/h 76% 0 mm
03:19 -18 °C -21.2 °C 1026.6 hPa West 9.7 km/h 19.3 km/h 76% 0 mm
03:24 -18.2 °C -21.4 °C 1026.3 hPa West 11.3 km/h 20.9 km/h 76% 0 mm
03:34 -18.3 °C -21.4 °C 1026.3 hPa West 11.3 km/h 20.9 km/h 77% 0 mm
03:39 -18.4 °C -21.4 °C 1026.3 hPa WSW 14.5 km/h 17.7 km/h 77% 0 mm
03:44 -18.4 °C -21.5 °C 1026.6 hPa West 8 km/h 17.7 km/h 77% 0 mm
03:49 -18.4 °C -21.5 °C 1026.6 hPa West 8 km/h 16.1 km/h 77% 0 mm
03:54 -18.5 °C -21.6 °C 1026.6 hPa West 4.8 km/h 16.1 km/h 77% 0 mm
03:59 -18.6 °C -21.6 °C 1026.6 hPa West 8 km/h 16.1 km/h 77% 0 mm
04:04 -18.7 °C -21.6 °C 1026.6 hPa WNW 8 km/h 12.9 km/h 78% 0 mm
04:09 -18.8 °C -21.7 °C 1026.6 hPa West 16.1 km/h 16.1 km/h 78% 0 mm
04:14 -18.9 °C -21.9 °C 1026.6 hPa West 8 km/h 16.1 km/h 77% 0 mm
04:19 -19.1 °C -22.1 °C 1026.6 hPa West 8 km/h 17.7 km/h 77% 0 mm
04:24 -19.2 °C -22.2 °C 1027 hPa West 8 km/h 17.7 km/h 77% 0 mm
04:29 -19.2 °C -22.2 °C 1027 hPa West 8 km/h 12.9 km/h 77% 0 mm
04:34 -19.2 °C -22.2 °C 1027 hPa West 11.3 km/h 17.7 km/h 77% 0 mm
04:39 -19.3 °C -22.3 °C 1027 hPa NW 9.7 km/h 16.1 km/h 77% 0 mm
04:44 -19.3 °C -22.3 °C 1027 hPa West 9.7 km/h 17.7 km/h 77% 0 mm
04:49 -19.3 °C -22.3 °C 1027 hPa WSW 8 km/h 20.9 km/h 77% 0 mm
04:59 -19.3 °C -22.3 °C 1027 hPa West 8 km/h 19.3 km/h 77% 0 mm
05:04 -19.3 °C -22.3 °C 1027 hPa WNW 4.8 km/h 12.9 km/h 77% 0 mm
05:09 -19.3 °C -22.3 °C 1027.3 hPa WNW 11.3 km/h 17.7 km/h 77% 0 mm
05:14 -19.3 °C -22.4 °C 1027.3 hPa West 4.8 km/h 17.7 km/h 76% 0 mm
05:19 -19.3 °C -22.5 °C 1027.3 hPa West 4.8 km/h 16.1 km/h 76% 0 mm
05:29 -19.5 °C -22.7 °C 1027.7 hPa West 8 km/h 16.1 km/h 76% 0 mm
05:34 -19.6 °C -22.8 °C 1027.7 hPa West 3.2 km/h 12.9 km/h 76% 0 mm
05:39 -19.7 °C -22.9 °C 1027.7 hPa West 6.4 km/h 16.1 km/h 76% 0 mm
05:44 -19.8 °C -22.9 °C 1027.7 hPa West 8 km/h 16.1 km/h 76% 0 mm
05:54 -19.9 °C -23.1 °C 1027.7 hPa West 6.4 km/h 14.5 km/h 76% 0 mm
05:59 -19.9 °C -23.1 °C 1027.7 hPa West 6.4 km/h 11.3 km/h 76% 0 mm
06:04 -19.9 °C -23.1 °C 1027.7 hPa West 6.4 km/h 12.9 km/h 76% 0 mm
06:09 -19.8 °C -22.8 °C 1027.7 hPa WNW 6.4 km/h 12.9 km/h 77% 0 mm
06:19 -19.6 °C -22.6 °C 1028 hPa WSW 4.8 km/h 9.7 km/h 77% 0 mm
06:24 -19.6 °C -22.4 °C 1028 hPa WSW 4.8 km/h 16.1 km/h 78% 0 mm
06:29 -19.6 °C -22.4 °C 1028 hPa West 6.4 km/h 16.1 km/h 78% 0 mm
06:34 -19.7 °C -22.5 °C 1028 hPa West 8 km/h 14.5 km/h 78% 0 mm
06:54 -19.8 °C -22.6 °C 1028.3 hPa West 8 km/h 16.1 km/h 78% 0 mm
07:04 -19.9 °C -22.7 °C 1028.7 hPa West 8 km/h 12.9 km/h 78% 0 mm
07:09 -19.9 °C -22.7 °C 1028.7 hPa West 6.4 km/h 12.9 km/h 78% 0 mm
07:19 -19.9 °C -22.8 °C 1029 hPa West 8 km/h 14.5 km/h 78% 0 mm
07:24 -19.9 °C -22.8 °C 1029 hPa West 8 km/h 14.5 km/h 78% 0 mm
07:29 -19.9 °C -22.8 °C 1029 hPa West 6.4 km/h 14.5 km/h 78% 0 mm
07:39 -19.8 °C -22.6 °C 1029.3 hPa West 4.8 km/h 14.5 km/h 79% 0 mm
07:49 -19.8 °C -22.5 °C 1029.3 hPa West 6.4 km/h 12.9 km/h 79% 0 mm
07:54 -19.8 °C -22.5 °C 1029.3 hPa West 9.7 km/h 16.1 km/h 79% 0 mm
07:59 -19.7 °C -22.4 °C 1029.7 hPa WNW 8 km/h 16.1 km/h 79% 0 mm
08:04 -19.7 °C -22.4 °C 1029.7 hPa WNW 9.7 km/h 12.9 km/h 79% 0 mm
08:09 -19.7 °C -22.4 °C 1029.7 hPa West 8 km/h 16.1 km/h 79% 0 mm
08:14 -19.7 °C -22.4 °C 1029.7 hPa WNW 3.2 km/h 14.5 km/h 79% 0 mm
08:19 -19.7 °C -22.4 °C 1030 hPa West 6.4 km/h 14.5 km/h 79% 0 mm
08:20 -19.7 °C -22.4 °C 1030 hPa WNW 4.8 km/h 14.5 km/h 79% 0 mm
08:29 -19.6 °C -22.3 °C 1030 hPa West 6.4 km/h 12.9 km/h 79% 0 mm
08:34 -19.5 °C -22.2 °C 1030.4 hPa West 6.4 km/h 14.5 km/h 79% 0 mm
08:39 -19.4 °C -21.9 °C 1030.4 hPa West 6.4 km/h 12.9 km/h 80% 0 mm
08:44 -19.3 °C -21.8 °C 1030.4 hPa West 6.4 km/h 12.9 km/h 80% 0 mm
08:49 -19.2 °C -21.7 °C 1030.4 hPa West 6.4 km/h 12.9 km/h 80% 0 mm
08:54 -19.1 °C -21.7 °C 1030.7 hPa West 4.8 km/h 11.3 km/h 80% 0 mm
08:59 -18.9 °C -21.6 °C 1030.7 hPa WSW 4.8 km/h 9.7 km/h 80% 0 mm
09:04 -18.9 °C -21.5 °C 1030.7 hPa West 8 km/h 11.3 km/h 80% 0 mm
09:09 -18.8 °C -21.4 °C 1030.7 hPa West 4.8 km/h 11.3 km/h 80% 0 mm
09:14 -18.7 °C -21.3 °C 1030.7 hPa West 4.8 km/h 11.3 km/h 80% 0 mm
09:19 -18.5 °C -21.1 °C 1030.7 hPa West 6.4 km/h 16.1 km/h 80% 0 mm
09:24 -18.3 °C -20.9 °C 1031 hPa West 6.4 km/h 16.1 km/h 80% 0 mm
09:29 -18.2 °C -20.8 °C 1031 hPa West 6.4 km/h 12.9 km/h 80% 0 mm
09:35 -18.2 °C -20.8 °C 1031 hPa West 6.4 km/h 12.9 km/h 80% 0 mm
09:44 -18 °C -20.8 °C 1031.4 hPa West 8 km/h 16.1 km/h 79% 0 mm
09:49 -17.9 °C -20.7 °C 1031.4 hPa WSW 4.8 km/h 12.9 km/h 79% 0 mm
09:54 -17.8 °C -20.6 °C 1031.4 hPa West 6.4 km/h 14.5 km/h 79% 0 mm
09:59 -17.7 °C -20.6 °C 1031.4 hPa WSW 4.8 km/h 17.7 km/h 78% 0 mm
10:04 -17.7 °C -20.6 °C 1031.7 hPa West 4.8 km/h 11.3 km/h 78% 0 mm
10:09 -17.6 °C -20.4 °C 1031.7 hPa West 6.4 km/h 11.3 km/h 78% 0 mm
10:14 -17.4 °C -20.3 °C 1031.7 hPa West 8 km/h 14.5 km/h 78% 0 mm
10:19 -17.3 °C -20.2 °C 1031.7 hPa West 3.2 km/h 14.5 km/h 78% 0 mm
10:24 -17.2 °C -20.2 °C 1031.7 hPa West 6.4 km/h 14.5 km/h 78% 0 mm
10:29 -17.2 °C -20.3 °C 1032.1 hPa WSW 6.4 km/h 14.5 km/h 77% 0 mm
10:34 -17.1 °C -20.2 °C 1032.1 hPa WSW 8 km/h 12.9 km/h 77% 0 mm
10:39 -17.2 °C -20.2 °C 1032.1 hPa West 8 km/h 14.5 km/h 77% 0 mm
10:44 -17.1 °C -20.2 °C 1032.1 hPa West 11.3 km/h 16.1 km/h 77% 0 mm
10:49 -17.1 °C -20.1 °C 1032.1 hPa West 6.4 km/h 14.5 km/h 77% 0 mm
10:54 -17.1 °C -20.1 °C 1032.1 hPa West 11.3 km/h 16.1 km/h 77% 0 mm
10:59 -16.9 °C -19.9 °C 1032.4 hPa West 8 km/h 16.1 km/h 77% 0 mm
11:09 -16.6 °C -19.7 °C 1032.4 hPa West 9.7 km/h 17.7 km/h 77% 0 mm
11:19 -16.1 °C -19.5 °C 1032.1 hPa West 11.3 km/h 19.3 km/h 75% 0 mm
11:24 -16.1 °C -19.4 °C 1032.1 hPa WSW 4.8 km/h 16.1 km/h 75% 0 mm
11:29 -16.1 °C -19.7 °C 1032.1 hPa West 11.3 km/h 22.5 km/h 74% 0 mm
11:39 -15.9 °C -19.7 °C 1032.1 hPa West 9.7 km/h 17.7 km/h 73% 0 mm
11:44 -15.9 °C -19.8 °C 1032.1 hPa West 9.7 km/h 16.1 km/h 72% 0 mm
11:54 -15.8 °C -19.6 °C 1032.1 hPa West 9.7 km/h 16.1 km/h 73% 0 mm
11:59 -15.8 °C -19.5 °C 1032.1 hPa West 4.8 km/h 17.7 km/h 73% 0 mm
12:04 -15.7 °C -19.4 °C 1032.1 hPa WNW 8 km/h 16.1 km/h 73% 0 mm
12:09 -15.7 °C -19.6 °C 1032.1 hPa West 9.7 km/h 20.9 km/h 72% 0 mm
12:14 -15.7 °C -19.6 °C 1032.1 hPa WSW 12.9 km/h 14.5 km/h 72% 0 mm
12:19 -15.7 °C -19.6 °C 1032.1 hPa West 6.4 km/h 17.7 km/h 72% 0 mm
12:24 -15.4 °C -19.2 °C 1032.1 hPa West 8 km/h 17.7 km/h 73% 0 mm
12:29 -15.3 °C -19.2 °C 1032.1 hPa WNW 6.4 km/h 14.5 km/h 72% 0 mm
12:34 -15.3 °C -19.2 °C 1032.4 hPa SW 3.2 km/h 12.9 km/h 72% 0 mm
12:39 -15.3 °C -19.2 °C 1032.4 hPa West 11.3 km/h 17.7 km/h 72% 0 mm
12:44 -15.3 °C -19.2 °C 1032.4 hPa WSW 8 km/h 16.1 km/h 72% 0 mm
12:49 -15.4 °C -19.3 °C 1032.4 hPa West 9.7 km/h 16.1 km/h 72% 0 mm
12:59 -14.9 °C -18.9 °C 1032.4 hPa West 6.4 km/h 14.5 km/h 72% 0 mm
13:04 -14.8 °C -18.8 °C 1032.4 hPa West 8 km/h 16.1 km/h 72% 0 mm
13:09 -14.9 °C -18.8 °C 1032.4 hPa WNW 8 km/h 16.1 km/h 72% 0 mm
13:14 -14.8 °C -18.7 °C 1032.4 hPa WNW 6.4 km/h 14.5 km/h 72% 0 mm
13:19 -14.8 °C -18.8 °C 1032.4 hPa NNW 4.8 km/h 14.5 km/h 72% 0 mm
13:24 -15.1 °C -19 °C 1032.4 hPa West 6.4 km/h 14.5 km/h 72% 0 mm
13:29 -15.3 °C -19.2 °C 1032.4 hPa WNW 16.1 km/h 17.7 km/h 72% 0 mm
13:34 -15.5 °C -19.4 °C 1032.4 hPa NW 4.8 km/h 16.1 km/h 72% 0 mm
13:40 -15.7 °C -19.7 °C 1032.7 hPa NW 8 km/h 16.1 km/h 71% 0 mm
13:49 -15.4 °C -19.7 °C 1032.7 hPa West 11.3 km/h 16.1 km/h 70% 0 mm
14:00 -15.7 °C -20.1 °C 1032.7 hPa WNW 11.3 km/h 20.9 km/h 69% 0 mm
14:09 -15.8 °C -20.2 °C 1032.7 hPa WNW 9.7 km/h 17.7 km/h 69% 0 mm
14:14 -15.5 °C -19.9 °C 1033.1 hPa WNW 8 km/h 17.7 km/h 69% 0 mm
14:24 -15.3 °C -19.8 °C 1033.1 hPa WNW 9.7 km/h 19.3 km/h 68% 0 mm
14:34 -14.7 °C -19.5 °C 1033.1 hPa WNW 8 km/h 14.5 km/h 67% 0 mm
14:39 -14.6 °C -19.4 °C 1033.1 hPa NW 8 km/h 17.7 km/h 67% 0 mm
14:44 -14.6 °C -19.6 °C 1033.4 hPa WNW 8 km/h 17.7 km/h 66% 0 mm
14:49 -14.6 °C -19.6 °C 1033.4 hPa WNW 8 km/h 14.5 km/h 66% 0 mm
14:54 -14.6 °C -19.3 °C 1033.4 hPa WNW 6.4 km/h 14.5 km/h 67% 0 mm
14:59 -14.7 °C -19.6 °C 1033.4 hPa WNW 6.4 km/h 12.9 km/h 66% 0 mm
15:04 -14.8 °C -19.8 °C 1033.7 hPa West 4.8 km/h 11.3 km/h 66% 0 mm
15:09 -14.9 °C -19.7 °C 1033.7 hPa West 6.4 km/h 11.3 km/h 67% 0 mm
15:14 -14.9 °C -19.6 °C 1033.7 hPa WNW 4.8 km/h 9.7 km/h 68% 0 mm
15:19 -14.9 °C -19.6 °C 1033.7 hPa SW 12.9 km/h 14.5 km/h 68% 0 mm
15:24 -15.1 °C -19.5 °C 1033.7 hPa West 9.7 km/h 12.9 km/h 69% 0 mm
15:29 -14.9 °C -19.4 °C 1033.7 hPa West 19.3 km/h 19.3 km/h 69% 0 mm
15:34 -14.9 °C -19.7 °C 1033.7 hPa West 9.7 km/h 22.5 km/h 67% 0 mm
15:39 -14.9 °C -19.9 °C 1033.7 hPa West 9.7 km/h 22.5 km/h 66% 0 mm
15:44 -15.1 °C -20.3 °C 1034.1 hPa West 8 km/h 14.5 km/h 64% 0 mm
15:49 -15.1 °C -20.4 °C 1034.1 hPa West 8 km/h 14.5 km/h 64% 0 mm
15:54 -15.2 °C -20.6 °C 1034.1 hPa West 8 km/h 12.9 km/h 63% 0 mm
15:59 -15.2 °C -20.7 °C 1034.1 hPa West 8 km/h 12.9 km/h 63% 0 mm
16:04 -15.3 °C -20.8 °C 1034.1 hPa WSW 8 km/h 16.1 km/h 63% 0 mm
16:09 -15.5 °C -21.1 °C 1034.1 hPa WSW 9.7 km/h 19.3 km/h 62% 0 mm
16:14 -15.7 °C -21.3 °C 1034.4 hPa WSW 9.7 km/h 19.3 km/h 62% 0 mm
16:19 -15.9 °C -21.5 °C 1034.4 hPa WSW 4.8 km/h 12.9 km/h 62% 0 mm
16:29 -16.1 °C -21.7 °C 1034.4 hPa West 6.4 km/h 14.5 km/h 62% 0 mm
16:34 -16.2 °C -21.8 °C 1034.4 hPa WNW 4.8 km/h 19.3 km/h 62% 0 mm
16:39 -16.3 °C -21.9 °C 1034.4 hPa West 4.8 km/h 14.5 km/h 62% 0 mm
16:44 -16.4 °C -22 °C 1034.4 hPa West 6.4 km/h 16.1 km/h 62% 0 mm
16:49 -16.5 °C -22.3 °C 1034.4 hPa West 8 km/h 17.7 km/h 61% 0 mm
16:54 -16.6 °C -22.3 °C 1034.4 hPa West 8 km/h 17.7 km/h 61% 0 mm
16:59 -16.6 °C -22.2 °C 1034.4 hPa WSW 8 km/h 17.7 km/h 62% 0 mm
17:04 -16.7 °C -22.2 °C 1034.4 hPa WSW 6.4 km/h 17.7 km/h 62% 0 mm
17:09 -16.7 °C -22.2 °C 1034.8 hPa West 9.7 km/h 14.5 km/h 62% 0 mm
17:14 -16.8 °C -22.3 °C 1034.8 hPa West 6.4 km/h 14.5 km/h 62% 0 mm
17:19 -16.8 °C -22.3 °C 1034.8 hPa WSW 8 km/h 16.1 km/h 62% 0 mm
17:24 -16.8 °C -22.3 °C 1034.8 hPa WSW 8 km/h 17.7 km/h 62% 0 mm
17:29 -16.8 °C -22.3 °C 1034.8 hPa WSW 8 km/h 17.7 km/h 62% 0 mm
17:39 -16.8 °C -22.4 °C 1034.8 hPa West 8 km/h 16.1 km/h 62% 0 mm
17:44 -16.9 °C -22.5 °C 1035.1 hPa SW 6.4 km/h 11.3 km/h 62% 0 mm
17:49 -17 °C -22.6 °C 1035.1 hPa WNW 8 km/h 11.3 km/h 62% 0 mm
17:54 -17.1 °C -22.6 °C 1035.1 hPa West 6.4 km/h 14.5 km/h 62% 0 mm
18:04 -17.1 °C -22.5 °C 1035.1 hPa West 6.4 km/h 14.5 km/h 63% 0 mm
18:09 -17.1 °C -22.5 °C 1035.1 hPa West 3.2 km/h 11.3 km/h 63% 0 mm
18:14 -17.1 °C -22.5 °C 1035.1 hPa West 6.4 km/h 11.3 km/h 63% 0 mm
18:19 -17.2 °C -22.6 °C 1035.1 hPa WSW 11.3 km/h 11.3 km/h 63% 0 mm
18:24 -17.2 °C -22.6 °C 1035.1 hPa West 6.4 km/h 9.7 km/h 63% 0 mm
18:29 -17.2 °C -22.6 °C 1035.4 hPa West 9.7 km/h 12.9 km/h 63% 0 mm
18:34 -17.3 °C -22.7 °C 1035.4 hPa West 4.8 km/h 12.9 km/h 63% 0 mm
18:39 -17.3 °C -22.7 °C 1035.4 hPa West 6.4 km/h 14.5 km/h 63% 0 mm
18:44 -17.3 °C -22.9 °C 1035.4 hPa WSW 1.6 km/h 12.9 km/h 62% 0 mm
18:49 -17.4 °C -22.9 °C 1035.4 hPa WSW 6.4 km/h 11.3 km/h 62% 0 mm
18:54 -17.4 °C -22.8 °C 1035.4 hPa West 3.2 km/h 12.9 km/h 63% 0 mm
18:59 -17.4 °C -22.8 °C 1035.4 hPa West 8 km/h 14.5 km/h 63% 0 mm
19:04 -17.4 °C -22.8 °C 1035.4 hPa West 6.4 km/h 14.5 km/h 63% 0 mm
19:14 -17.6 °C -22.7 °C 1035.4 hPa West 3.2 km/h 12.9 km/h 64% 0 mm
19:19 -17.6 °C -22.7 °C 1035.4 hPa West 3.2 km/h 16.1 km/h 64% 0 mm
19:29 -17.6 °C -22.9 °C 1035.8 hPa West 8 km/h 20.9 km/h 63% 0 mm
19:34 -17.6 °C -22.9 °C 1035.8 hPa West 3.2 km/h 16.1 km/h 63% 0 mm
19:39 -17.7 °C -23 °C 1035.8 hPa West 8 km/h 17.7 km/h 63% 0 mm
19:44 -17.7 °C -23.1 °C 1036.1 hPa West 8 km/h 17.7 km/h 63% 0 mm
19:54 -17.7 °C -23.1 °C 1035.8 hPa West 8 km/h 16.1 km/h 63% 0 mm
19:59 -17.7 °C -22.9 °C 1036.1 hPa West 8 km/h 16.1 km/h 64% 0 mm
20:04 -17.7 °C -22.9 °C 1035.8 hPa West 6.4 km/h 16.1 km/h 64% 0 mm
20:09 -17.8 °C -22.8 °C 1036.1 hPa West 6.4 km/h 14.5 km/h 65% 0 mm
20:19 -17.7 °C -22.7 °C 1036.1 hPa West 6.4 km/h 12.9 km/h 65% 0 mm
20:24 -17.7 °C -22.6 °C 1036.1 hPa West 6.4 km/h 12.9 km/h 66% 0 mm
20:29 -17.8 °C -22.6 °C 1036.5 hPa West 6.4 km/h 12.9 km/h 66% 0 mm
20:34 -17.8 °C -22.6 °C 1036.5 hPa West 4.8 km/h 16.1 km/h 66% 0 mm
20:39 -17.8 °C -22.6 °C 1036.1 hPa West 6.4 km/h 16.1 km/h 66% 0 mm
20:44 -17.8 °C -22.5 °C 1036.1 hPa West 8 km/h 16.1 km/h 67% 0 mm
20:49 -17.9 °C -22.6 °C 1036.1 hPa NW 9.7 km/h 14.5 km/h 67% 0 mm
20:54 -17.8 °C -22.5 °C 1036.1 hPa WSW 9.7 km/h 17.7 km/h 67% 0 mm
20:59 -17.9 °C -22.6 °C 1036.1 hPa West 8 km/h 17.7 km/h 67% 0 mm
21:04 -17.9 °C -22.4 °C 1036.5 hPa West 8 km/h 14.5 km/h 68% 0 mm
21:09 -17.9 °C -22.4 °C 1036.5 hPa West 8 km/h 14.5 km/h 68% 0 mm
21:14 -18 °C -22.4 °C 1036.5 hPa West 4.8 km/h 12.9 km/h 68% 0 mm
21:19 -18 °C -22.3 °C 1036.5 hPa WSW 4.8 km/h 12.9 km/h 69% 0 mm
21:24 -18 °C -22.3 °C 1036.5 hPa West 6.4 km/h 12.9 km/h 69% 0 mm
21:39 -17.9 °C -22.1 °C 1036.5 hPa WNW 11.3 km/h 11.3 km/h 70% 0 mm
21:44 -17.9 °C -22.1 °C 1036.5 hPa WSW 6.4 km/h 12.9 km/h 70% 0 mm
21:49 -17.9 °C -22.1 °C 1036.5 hPa West 4.8 km/h 12.9 km/h 70% 0 mm
21:54 -17.8 °C -21.8 °C 1036.5 hPa WSW 4.8 km/h 11.3 km/h 71% 0 mm
22:04 -17.7 °C -21.7 °C 1036.5 hPa WSW 4.8 km/h 11.3 km/h 71% 0 mm
22:09 -17.6 °C -21.4 °C 1036.5 hPa WSW 6.4 km/h 11.3 km/h 72% 0 mm
22:14 -17.4 °C -21.4 °C 1036.5 hPa WSW 4.8 km/h 11.3 km/h 71% 0 mm
22:19 -17.3 °C -21.2 °C 1036.5 hPa WSW 4.8 km/h 11.3 km/h 72% 0 mm
22:24 -17.3 °C -21.1 °C 1036.5 hPa West 4.8 km/h 8 km/h 72% 0 mm
22:34 -17.1 °C -20.9 °C 1036.5 hPa WSW 3.2 km/h 8 km/h 72% 0 mm
22:39 -17.1 °C -20.9 °C 1036.5 hPa WSW 3.2 km/h 8 km/h 72% 0 mm
22:44 -17 °C -20.8 °C 1036.5 hPa WSW 3.2 km/h 8 km/h 72% 0 mm
22:50 -16.9 °C -20.8 °C 1036.5 hPa WSW 4.8 km/h 9.7 km/h 72% 0 mm
22:59 -16.8 °C -20.6 °C 1036.5 hPa SW 4.8 km/h 11.3 km/h 73% 0 mm
23:04 -16.8 °C -20.5 °C 1036.5 hPa WSW 4.8 km/h 11.3 km/h 73% 0 mm
23:09 -16.8 °C -20.5 °C 1036.5 hPa WSW 4.8 km/h 9.7 km/h 73% 0 mm
23:14 -16.7 °C -20.4 °C 1036.5 hPa WSW 4.8 km/h 11.3 km/h 73% 0 mm
23:19 -16.7 °C -20.6 °C 1036.5 hPa WSW 4.8 km/h 11.3 km/h 72% 0 mm
23:24 -16.7 °C -20.6 °C 1036.5 hPa WSW 4.8 km/h 11.3 km/h 72% 0 mm
23:29 -16.8 °C -20.7 °C 1036.5 hPa WSW 3.2 km/h 16.1 km/h 72% 0 mm
23:34 -16.7 °C -20.6 °C 1036.5 hPa WSW 6.4 km/h 16.1 km/h 72% 0 mm
23:39 -16.7 °C -20.4 °C 1036.5 hPa WSW 6.4 km/h 12.9 km/h 73% 0 mm
23:44 -16.7 °C -20.4 °C 1036.5 hPa WSW 6.4 km/h 12.9 km/h 73% 0 mm
23:49 -16.7 °C -20.4 °C 1036.5 hPa WSW 6.4 km/h 12.9 km/h 73% 0 mm
23:54 -16.7 °C -20.4 °C 1036.5 hPa WSW 6.4 km/h 14.5 km/h 73% 0 mm
23:59 -16.7 °C -20.4 °C 1036.5 hPa WSW 6.4 km/h 14.5 km/h 73% 0 mm
Buffalo, New York, USA
Compliments of Weather Underground - 2.25 mb